KABY/ABY METAR and TAF weather

Enter ICAO airport designator
Station Type Date Time Source
KABY METAR 2018/10/19 14:53 UTC NOAA

KABY 191453Z 06007KT 10SM SCT038 SCT050 23/14 A3030 RMK AO2 SLP260 T02280144 51008


Station Type Date Time Source
KABY Decoded METAR 2018/10/19 14:53 UTC NOAA

ALBANY SOUTHWEST GEORGIA, GA, United States (KABY) 31-32N 084-12W 58M
Oct 19, 2018 - 10:53 AM EDT / 2018.10.19 1453 UTC
Wind: from the ENE (060 degrees) at 8 MPH (7 KT):0
Visibility: 10 mile(s):0
Sky conditions: partly cloudy
Temperature: 73.0 F (22.8 C)
Dew Point: 57.9 F (14.4 C)
Relative Humidity: 59%
Pressure (altimeter): 30.3 in. Hg (1026 hPa)
Pressure tendency: 0.02 inches (0.8 hPa) higher than three hours ago
ob: KABY 191453Z 06007KT 10SM SCT038 SCT050 23/14 A3030 RMK AO2 SLP260 T02280144 51008
cycle: 15

Station Type Date Time Source
KABY TAF 2018/10/19 12:28 UTC NOAA

TAF KABY 191126Z 1912/2012 06007KT P6SM BKN050
FM200100 00000KT P6SM BKN250


Example: see airport list